Time;durP1;ratioP1;P1;durP2;ratioP2;P2;SDS_P1;SDS_P2;PMS_P1;PMS_P2;Temp;Humidity;BMP_temperature;BMP_pressure;BME280_temperature;BME280_humidity;BME280_pressure;Samples;Min_cycle;Max_cycle;Signal;HPM_P1;HPM_P2
2023/03/19 00:01:52;;;;;;;9.85;6.85;;;6.70;79.80;;;;;;4970066;28;20034;-70
2023/03/19 00:04:18;;;;;;;8.30;6.55;;;6.70;79.70;;;;;;4967199;28;20475;-71
2023/03/19 00:06:44;;;;;;;7.53;5.88;;;6.70;79.80;;;;;;4965930;28;20038;-70
2023/03/19 00:09:10;;;;;;;8.27;6.70;;;6.70;79.60;;;;;;4972324;28;20035;-71
2023/03/19 00:11:36;;;;;;;7.90;6.50;;;6.70;79.60;;;;;;4972809;28;20057;-72
2023/03/19 00:14:02;;;;;;;7.50;6.70;;;6.70;79.70;;;;;;4959193;28;20031;-67
2023/03/19 00:16:28;;;;;;;8.88;6.68;;;6.70;79.60;;;;;;4967571;28;20130;-73
2023/03/19 00:18:53;;;;;;;7.40;6.50;;;6.70;79.60;;;;;;4971241;28;20027;-69
2023/03/19 00:21:20;;;;;;;6.88;5.72;;;6.70;79.60;;;;;;4972662;28;20031;-73
2023/03/19 00:23:45;;;;;;;8.07;6.22;;;6.70;79.50;;;;;;4972528;28;20106;-70
2023/03/19 00:26:11;;;;;;;7.97;6.70;;;6.70;79.50;;;;;;4972367;28;20137;-72
2023/03/19 00:28:37;;;;;;;7.10;6.40;;;6.70;79.40;;;;;;4973113;28;20089;-73
2023/03/19 00:31:11;;;;;;;7.85;6.82;;;6.70;79.40;;;;;;4971966;28;20074;-63
2023/03/19 00:33:37;;;;;;;8.70;6.88;;;6.70;79.50;;;;;;4968678;28;20377;-63
2023/03/19 00:36:04;;;;;;;7.40;6.43;;;6.70;79.50;;;;;;4972432;28;20458;-63
2023/03/19 00:38:31;;;;;;;8.10;7.20;;;6.70;79.60;;;;;;4972721;28;20414;-63
2023/03/19 00:40:56;;;;;;;8.05;6.35;;;6.70;79.60;;;;;;4972009;28;20026;-63
2023/03/19 00:43:22;;;;;;;8.38;6.97;;;6.70;79.60;;;;;;4969235;28;20429;-63
2023/03/19 00:45:47;;;;;;;7.68;6.82;;;6.60;79.60;;;;;;4971169;28;20031;-63
2023/03/19 00:48:13;;;;;;;8.52;7.18;;;6.60;79.70;;;;;;4985388;28;20165;-63
2023/03/19 00:50:39;;;;;;;8.43;6.65;;;6.60;79.70;;;;;;4975815;28;20042;-63
2023/03/19 00:53:05;;;;;;;9.02;7.18;;;6.60;79.70;;;;;;4975537;28;20497;-63
2023/03/19 00:55:30;;;;;;;7.50;6.60;;;6.60;79.70;;;;;;4977672;28;20519;-63
2023/03/19 00:57:56;;;;;;;7.90;6.78;;;6.60;79.80;;;;;;4976074;28;20054;-63
2023/03/19 01:00:22;;;;;;;7.43;6.40;;;6.60;79.80;;;;;;4976504;28;20462;-63
2023/03/19 01:02:48;;;;;;;8.48;7.40;;;6.60;80.00;;;;;;4973296;28;20038;-63
2023/03/19 01:05:13;;;;;;;9.98;7.22;;;6.60;80.00;;;;;;4975854;28;20043;-62
2023/03/19 01:07:39;;;;;;;9.15;7.75;;;6.60;80.10;;;;;;4973357;28;20034;-63
2023/03/19 01:10:06;;;;;;;10.45;8.52;;;6.60;80.00;;;;;;4975387;28;20030;-62
2023/03/19 01:12:32;;;;;;;9.77;8.02;;;6.60;80.00;;;;;;4975602;28;20030;-62
2023/03/19 01:14:58;;;;;;;9.60;8.25;;;6.60;80.10;;;;;;4975325;28;20050;-63
2023/03/19 01:17:24;;;;;;;9.95;8.02;;;6.60;80.20;;;;;;4984961;28;20034;-60
2023/03/19 01:19:50;;;;;;;8.52;7.45;;;6.60;80.30;;;;;;4974678;28;20069;-60
2023/03/19 01:22:16;;;;;;;9.50;8.27;;;6.60;80.20;;;;;;4966366;28;20054;-61
2023/03/19 01:24:42;;;;;;;12.30;8.57;;;6.60;80.20;;;;;;4973157;28;20043;-61
2023/03/19 01:27:08;;;;;;;10.43;8.40;;;6.50;80.20;;;;;;4974536;28;20366;-64
2023/03/19 01:29:33;;;;;;;9.50;8.15;;;6.50;80.30;;;;;;4975016;28;20090;-63
2023/03/19 01:31:59;;;;;;;10.77;8.32;;;6.50;80.80;;;;;;4974948;28;20102;-60
2023/03/19 01:34:25;;;;;;;9.77;8.27;;;6.60;80.30;;;;;;4974957;28;20062;-60
2023/03/19 01:36:51;;;;;;;9.77;7.78;;;6.60;80.10;;;;;;4975308;28;20520;-61
2023/03/19 01:39:16;;;;;;;9.30;7.60;;;6.60;80.10;;;;;;4974437;28;20147;-63
2023/03/19 01:41:42;;;;;;;9.50;7.82;;;6.60;80.00;;;;;;4973818;28;20030;-63
2023/03/19 01:44:46;;;;;;;10.27;8.48;;;6.60;80.10;;;;;;4975543;28;20027;-61
2023/03/19 01:47:19;;;;;;;8.57;7.35;;;6.60;79.90;;;;;;4959166;28;20050;-73
2023/03/19 01:49:52;;;;;;;7.40;6.47;;;6.60;80.10;;;;;;4949182;28;20211;-72
2023/03/19 01:52:19;;;;;;;8.85;7.93;;;6.60;80.10;;;;;;4961980;28;20035;-70
2023/03/19 01:54:45;;;;;;;8.10;7.20;;;6.60;80.20;;;;;;4974808;28;20030;-73
2023/03/19 01:57:13;;;;;;;10.07;8.02;;;6.60;80.30;;;;;;4974907;28;20034;-63
2023/03/19 01:59:47;;;;;;;11.80;8.35;;;6.60;80.30;;;;;;4974821;28;20082;-65
2023/03/19 02:02:33;;;;;;;9.85;7.82;;;6.60;80.30;;;;;;4975490;28;20097;-65
2023/03/19 02:05:12;;;;;;;10.02;8.02;;;6.60;80.20;;;;;;4970104;28;20043;-65
2023/03/19 02:07:39;;;;;;;9.75;7.00;;;6.60;80.20;;;;;;4963919;28;20039;-65
2023/03/19 02:10:08;;;;;;;8.60;7.03;;;6.60;80.30;;;;;;4975279;28;20031;-65
2023/03/19 02:12:34;;;;;;;8.68;7.18;;;6.70;80.30;;;;;;4974977;28;20394;-66
2023/03/19 02:15:00;;;;;;;8.65;6.85;;;6.70;80.20;;;;;;4963606;28;20026;-65
2023/03/19 02:17:28;;;;;;;8.38;6.72;;;6.80;80.00;;;;;;4981285;28;20109;-59
2023/03/19 02:19:53;;;;;;;7.60;6.30;;;6.80;79.70;;;;;;4971286;28;20031;-60
2023/03/19 02:22:22;;;;;;;6.93;6.10;;;6.80;79.50;;;;;;4962887;28;20439;-61
2023/03/19 02:24:54;;;;;;;6.85;6.05;;;6.80;79.40;;;;;;4973679;28;20046;-60
2023/03/19 02:27:20;;;;;;;6.93;5.80;;;6.80;79.60;;;;;;4974331;28;20134;-66
2023/03/19 02:29:45;;;;;;;6.40;5.68;;;6.80;79.10;;;;;;4974826;28;20434;-66
2023/03/19 02:32:11;;;;;;;6.78;5.97;;;6.80;79.10;;;;;;4973895;28;20034;-58
2023/03/19 02:34:40;;;;;;;6.03;5.38;;;6.80;79.00;;;;;;4973946;28;20049;-57
2023/03/19 02:37:28;;;;;;;7.18;5.90;;;6.80;79.10;;;;;;4973902;28;20457;-62
2023/03/19 02:40:07;;;;;;;6.15;5.55;;;6.80;79.00;;;;;;4973233;28;20388;-61
2023/03/19 02:42:33;;;;;;;6.60;5.82;;;6.80;79.00;;;;;;4973475;28;20037;-61
2023/03/19 02:44:58;;;;;;;6.20;5.60;;;6.80;79.00;;;;;;4974122;28;20035;-61
2023/03/19 02:47:25;;;;;;;7.60;5.72;;;6.80;78.90;;;;;;4979541;28;20037;-61
2023/03/19 02:49:51;;;;;;;6.72;6.03;;;6.80;78.80;;;;;;4973920;28;20033;-61
2023/03/19 02:52:17;;;;;;;6.25;5.40;;;6.80;78.60;;;;;;4973702;28;20113;-72
2023/03/19 02:54:43;;;;;;;6.50;5.78;;;6.80;78.70;;;;;;4973483;28;20054;-65
2023/03/19 02:57:08;;;;;;;7.63;6.35;;;6.80;78.80;;;;;;4973946;28;20023;-57
2023/03/19 02:59:34;;;;;;;7.32;5.95;;;6.80;78.80;;;;;;4973924;28;20027;-60
2023/03/19 03:02:00;;;;;;;6.90;5.38;;;6.80;78.80;;;;;;4973703;28;20094;-59
2023/03/19 03:04:26;;;;;;;7.07;6.03;;;6.80;78.80;;;;;;4973594;28;20039;-61
2023/03/19 03:06:52;;;;;;;6.72;6.07;;;6.80;78.90;;;;;;4972490;28;20030;-59
2023/03/19 03:09:18;;;;;;;7.65;5.90;;;6.80;78.80;;;;;;4973642;28;20390;-59
2023/03/19 03:11:44;;;;;;;8.18;5.95;;;6.80;78.80;;;;;;4973416;28;20065;-58
2023/03/19 03:14:10;;;;;;;7.32;6.13;;;6.80;78.80;;;;;;4973555;28;20027;-58
2023/03/19 03:16:36;;;;;;;8.55;6.75;;;6.80;79.00;;;;;;4980630;28;20036;-71
2023/03/19 03:19:03;;;;;;;7.47;5.80;;;6.90;79.00;;;;;;4973716;28;20038;-69
2023/03/19 03:21:28;;;;;;;7.30;5.57;;;6.90;78.90;;;;;;4972937;28;20105;-69
2023/03/19 03:23:55;;;;;;;6.40;5.38;;;7.00;78.50;;;;;;4972669;28;20113;-72
2023/03/19 03:26:20;;;;;;;6.50;5.25;;;7.00;78.30;;;;;;4972676;28;20075;-72
2023/03/19 03:28:46;;;;;;;6.65;5.82;;;6.90;78.30;;;;;;4973442;28;20129;-69
2023/03/19 03:31:12;;;;;;;6.60;5.90;;;6.90;78.40;;;;;;4973450;28;20031;-59
2023/03/19 03:33:38;;;;;;;6.78;5.93;;;6.90;78.40;;;;;;4972566;28;20030;-59
2023/03/19 03:36:04;;;;;;;7.28;5.95;;;6.90;78.50;;;;;;4973147;28;20382;-63
2023/03/19 03:38:31;;;;;;;7.65;6.30;;;6.80;78.80;;;;;;4973135;28;20038;-63
2023/03/19 03:40:57;;;;;;;6.78;5.47;;;6.80;78.70;;;;;;4973379;28;20026;-63
2023/03/19 03:43:24;;;;;;;6.82;5.72;;;6.80;78.90;;;;;;4972686;28;20258;-63
2023/03/19 03:45:50;;;;;;;7.75;5.90;;;6.80;78.90;;;;;;4973316;28;20374;-63
2023/03/19 03:48:16;;;;;;;6.85;5.82;;;6.80;78.90;;;;;;4978133;28;20046;-63
2023/03/19 03:50:42;;;;;;;7.03;6.32;;;6.80;78.90;;;;;;4973051;28;20030;-64
2023/03/19 03:53:08;;;;;;;7.03;5.85;;;6.80;78.90;;;;;;4973435;28;20486;-66
2023/03/19 03:55:34;;;;;;;7.50;5.90;;;6.80;78.90;;;;;;4974347;28;20038;-72
2023/03/19 03:58:00;;;;;;;6.90;5.75;;;6.80;78.90;;;;;;4971054;28;20034;-70
2023/03/19 04:00:26;;;;;;;6.55;5.60;;;6.80;78.80;;;;;;4972737;28;20049;-66
2023/03/19 04:02:52;;;;;;;9.00;5.80;;;6.80;78.90;;;;;;4972960;28;20340;-70
2023/03/19 04:05:18;;;;;;;7.07;6.30;;;6.80;79.00;;;;;;4972525;28;20401;-65
2023/03/19 04:07:44;;;;;;;6.55;5.25;;;6.90;79.00;;;;;;4973013;28;20509;-67
2023/03/19 04:10:11;;;;;;;7.13;5.68;;;6.90;78.80;;;;;;4973293;28;20042;-66
2023/03/19 04:12:38;;;;;;;6.13;5.13;;;6.80;78.80;;;;;;4973468;28;20344;-66
2023/03/19 04:15:05;;;;;;;6.32;5.50;;;6.80;78.90;;;;;;4974441;28;20043;-65
2023/03/19 04:17:31;;;;;;;6.53;5.75;;;6.80;78.90;;;;;;4977906;28;20440;-63
2023/03/19 04:19:56;;;;;;;6.97;5.90;;;6.80;78.90;;;;;;4976651;28;20062;-62
2023/03/19 04:22:22;;;;;;;6.63;5.53;;;6.80;79.00;;;;;;4975806;28;20039;-62
2023/03/19 04:24:48;;;;;;;6.95;5.35;;;6.80;79.50;;;;;;4975956;28;20378;-63
2023/03/19 04:27:14;;;;;;;6.03;5.38;;;6.80;78.90;;;;;;4976661;28;20430;-62
2023/03/19 04:29:39;;;;;;;6.97;5.82;;;6.80;78.80;;;;;;4971672;28;20501;-62
2023/03/19 04:32:05;;;;;;;7.00;5.57;;;6.80;78.80;;;;;;4976070;28;20414;-61
2023/03/19 04:34:31;;;;;;;7.00;6.07;;;6.80;78.80;;;;;;4976065;28;20046;-62
2023/03/19 04:36:57;;;;;;;6.32;5.53;;;6.80;78.90;;;;;;4976884;28;20027;-65
2023/03/19 04:39:23;;;;;;;7.97;5.32;;;6.90;79.50;;;;;;4976608;28;20049;-66
2023/03/19 04:41:49;;;;;;;7.75;6.03;;;6.90;78.80;;;;;;4977105;28;20026;-66
2023/03/19 04:44:15;;;;;;;7.00;5.88;;;6.90;78.60;;;;;;4977366;28;20110;-66
2023/03/19 04:46:43;;;;;;;7.57;5.90;;;6.90;78.80;;;;;;4982962;28;20113;-64
2023/03/19 04:49:09;;;;;;;6.95;5.28;;;6.90;78.80;;;;;;4975912;28;20048;-64
2023/03/19 04:51:34;;;;;;;8.10;6.13;;;6.90;78.40;;;;;;4976417;28;20030;-63
2023/03/19 04:54:00;;;;;;;6.30;5.40;;;6.90;78.40;;;;;;4975742;28;20029;-63
2023/03/19 04:56:26;;;;;;;8.38;5.60;;;7.00;78.40;;;;;;4976563;28;20042;-64
2023/03/19 04:58:53;;;;;;;6.03;5.20;;;7.10;78.30;;;;;;4975999;28;20025;-64
2023/03/19 05:01:19;;;;;;;6.80;5.75;;;7.10;78.10;;;;;;4975281;28;20355;-63
2023/03/19 05:03:45;;;;;;;8.95;6.20;;;7.20;78.00;;;;;;4975638;28;20034;-63
2023/03/19 05:06:11;;;;;;;7.75;5.63;;;7.20;78.00;;;;;;4975605;28;20030;-58
2023/03/19 05:08:36;;;;;;;6.82;5.40;;;7.20;78.10;;;;;;4975394;28;20488;-59
2023/03/19 05:11:02;;;;;;;6.80;5.60;;;7.30;78.10;;;;;;4975619;28;20042;-61
2023/03/19 05:13:28;;;;;;;7.97;5.47;;;7.30;77.80;;;;;;4968555;28;20415;-61
2023/03/19 05:15:55;;;;;;;8.50;5.72;;;7.40;77.60;;;;;;4973340;28;20529;-61
2023/03/19 05:18:21;;;;;;;5.82;5.03;;;7.40;77.40;;;;;;4975746;28;20395;-62
2023/03/19 05:20:47;;;;;;;6.45;4.95;;;7.50;77.10;;;;;;4975590;28;20034;-59
2023/03/19 05:23:12;;;;;;;8.20;5.30;;;7.50;76.80;;;;;;4975600;28;20019;-58
2023/03/19 05:25:39;;;;;;;6.07;5.10;;;7.60;76.90;;;;;;4975082;28;20549;-66
2023/03/19 05:28:06;;;;;;;6.05;4.88;;;7.70;76.70;;;;;;4975583;28;20042;-66
2023/03/19 05:30:33;;;;;;;6.72;5.28;;;7.70;76.10;;;;;;4974789;28;20029;-58
2023/03/19 05:32:58;;;;;;;6.30;5.40;;;7.70;76.00;;;;;;4965838;28;20025;-58
2023/03/19 05:35:25;;;;;;;6.68;4.95;;;7.70;76.10;;;;;;4974401;28;20115;-62
2023/03/19 05:37:51;;;;;;;8.68;5.47;;;7.80;76.20;;;;;;4974609;28;20441;-62
2023/03/19 05:40:16;;;;;;;6.38;5.20;;;7.90;76.00;;;;;;4974906;28;20026;-63
2023/03/19 05:42:42;;;;;;;6.18;5.47;;;8.10;75.80;;;;;;4975362;28;20027;-63
2023/03/19 05:45:08;;;;;;;6.90;5.20;;;8.20;75.40;;;;;;4974923;28;20087;-63
2023/03/19 05:47:34;;;;;;;6.47;4.95;;;8.30;75.30;;;;;;4981742;28;20034;-63
2023/03/19 05:50:00;;;;;;;5.70;5.10;;;8.60;75.10;;;;;;4974630;28;20027;-64
2023/03/19 05:52:25;;;;;;;7.15;5.50;;;8.90;74.60;;;;;;4974725;28;20390;-63
2023/03/19 05:54:51;;;;;;;6.03;4.88;;;9.00;73.80;;;;;;4975909;28;20031;-64
2023/03/19 05:57:17;;;;;;;7.72;5.18;;;9.20;73.60;;;;;;4975247;28;20027;-65
2023/03/19 05:59:43;;;;;;;6.88;5.28;;;9.40;73.20;;;;;;4975555;28;20037;-65
2023/03/19 06:02:08;;;;;;;6.68;4.97;;;9.60;73.00;;;;;;4975742;28;20037;-65
2023/03/19 06:04:34;;;;;;;6.78;5.20;;;9.80;73.00;;;;;;4975398;28;20421;-65
2023/03/19 06:07:00;;;;;;;5.50;4.90;;;10.10;72.60;;;;;;4973770;28;20041;-66
2023/03/19 06:09:26;;;;;;;5.28;4.45;;;10.50;72.60;;;;;;4974575;28;20116;-65
2023/03/19 06:11:52;;;;;;;5.20;4.55;;;11.00;71.70;;;;;;4974989;28;20031;-60
2023/03/19 06:14:17;;;;;;;6.05;4.57;;;11.50;71.10;;;;;;4961473;28;20039;-59
2023/03/19 06:16:43;;;;;;;5.90;4.25;;;12.00;70.20;;;;;;4976297;28;20083;-60
2023/03/19 06:19:10;;;;;;;6.05;4.45;;;12.60;69.00;;;;;;4973086;28;20035;-59
2023/03/19 06:21:35;;;;;;;6.00;4.60;;;13.20;67.50;;;;;;4973942;28;20458;-72
2023/03/19 06:24:01;;;;;;;5.18;4.38;;;13.80;65.50;;;;;;4973082;28;20041;-68
2023/03/19 06:26:27;;;;;;;5.30;4.15;;;14.10;63.90;;;;;;4974676;28;20047;-59
2023/03/19 06:28:53;;;;;;;7.13;4.93;;;14.30;62.40;;;;;;4974233;28;20113;-59
2023/03/19 06:31:19;;;;;;;6.43;4.63;;;14.10;61.40;;;;;;4974285;28;20109;-58
2023/03/19 06:33:44;;;;;;;4.93;4.13;;;13.90;61.30;;;;;;4973695;28;20105;-59
2023/03/19 06:36:10;;;;;;;5.93;4.40;;;13.50;61.60;;;;;;4974719;28;20454;-66
2023/03/19 06:38:36;;;;;;;5.30;4.40;;;13.00;62.00;;;;;;4974581;28;20035;-66
2023/03/19 06:41:03;;;;;;;7.00;4.80;;;12.50;62.70;;;;;;4974083;28;20043;-64
2023/03/19 06:43:28;;;;;;;5.40;4.20;;;12.00;63.50;;;;;;4974186;28;20035;-64
2023/03/19 06:45:54;;;;;;;5.70;4.75;;;11.60;64.20;;;;;;4974788;28;20043;-63
2023/03/19 06:48:20;;;;;;;6.40;4.82;;;11.30;64.60;;;;;;4975216;28;20042;-64
2023/03/19 06:50:45;;;;;;;5.60;4.60;;;11.10;65.10;;;;;;4973499;28;20034;-59
2023/03/19 06:53:12;;;;;;;5.72;4.88;;;10.90;65.20;;;;;;4971673;28;20027;-59
2023/03/19 06:55:38;;;;;;;6.25;4.90;;;10.80;65.40;;;;;;4974824;28;20101;-58
2023/03/19 06:58:05;;;;;;;5.93;4.88;;;10.70;65.50;;;;;;4972560;28;20045;-59
2023/03/19 07:00:32;;;;;;;5.50;4.55;;;10.60;65.40;;;;;;4973303;28;20037;-64
2023/03/19 07:02:58;;;;;;;6.07;5.15;;;10.40;65.50;;;;;;4971970;28;20034;-64
2023/03/19 07:05:23;;;;;;;5.07;4.57;;;10.30;65.90;;;;;;4972958;28;20051;-64
2023/03/19 07:07:49;;;;;;;5.55;4.40;;;10.20;66.00;;;;;;4973172;28;20356;-63
2023/03/19 07:10:18;;;;;;;5.85;4.82;;;10.10;66.10;;;;;;4973714;28;20389;-64
2023/03/19 07:12:44;;;;;;;5.95;5.00;;;10.10;66.10;;;;;;4972663;28;20462;-64
2023/03/19 07:15:10;;;;;;;6.13;4.90;;;10.00;66.30;;;;;;4962556;28;20034;-65
2023/03/19 07:17:35;;;;;;;5.32;4.82;;;9.90;66.60;;;;;;4973320;28;20478;-65
2023/03/19 07:20:01;;;;;;;6.72;5.35;;;9.80;66.60;;;;;;4973629;28;20038;-64
2023/03/19 07:22:27;;;;;;;6.57;5.10;;;9.80;66.50;;;;;;4971378;28;20061;-62
2023/03/19 07:24:52;;;;;;;5.95;5.00;;;9.80;66.80;;;;;;4972677;28;20054;-60
2023/03/19 07:27:18;;;;;;;5.07;4.57;;;9.70;66.90;;;;;;4972566;28;20030;-72
2023/03/19 07:29:44;;;;;;;6.07;4.68;;;9.70;66.90;;;;;;4973316;28;20533;-69
2023/03/19 07:32:10;;;;;;;7.10;4.95;;;9.70;66.90;;;;;;4973598;28;20045;-65
2023/03/19 07:34:36;;;;;;;4.82;4.32;;;9.60;66.90;;;;;;4973595;28;20093;-64
2023/03/19 07:37:02;;;;;;;4.70;4.10;;;9.50;67.10;;;;;;4973384;28;20042;-58
2023/03/19 07:39:27;;;;;;;5.97;4.75;;;9.40;67.30;;;;;;4973228;28;20382;-58
2023/03/19 07:41:53;;;;;;;6.72;5.35;;;9.30;67.50;;;;;;4973216;28;20377;-60
2023/03/19 07:44:19;;;;;;;6.63;4.90;;;9.30;67.60;;;;;;4973288;28;20034;-59
2023/03/19 07:46:44;;;;;;;5.53;4.47;;;9.30;67.60;;;;;;4973999;28;20035;-62
2023/03/19 07:49:10;;;;;;;5.65;4.60;;;9.30;67.60;;;;;;4972042;28;20034;-62
2023/03/19 07:51:36;;;;;;;5.95;5.25;;;9.30;67.80;;;;;;4973861;28;20412;-61
2023/03/19 07:54:02;;;;;;;6.22;4.70;;;9.30;67.70;;;;;;4978148;28;20034;-59
2023/03/19 07:56:28;;;;;;;6.40;5.07;;;9.20;67.80;;;;;;4980127;28;20046;-63
2023/03/19 07:58:53;;;;;;;5.35;4.57;;;9.30;67.80;;;;;;4978656;28;20035;-64
2023/03/19 08:01:19;;;;;;;6.25;4.85;;;9.30;67.90;;;;;;4978916;28;20042;-61
2023/03/19 08:03:47;;;;;;;6.47;4.65;;;9.30;68.10;;;;;;4979302;28;20113;-59
2023/03/19 08:06:13;;;;;;;5.93;4.20;;;9.40;67.90;;;;;;4979660;28;20137;-67
2023/03/19 08:08:38;;;;;;;5.85;4.40;;;9.40;68.10;;;;;;4981115;28;20054;-65
2023/03/19 08:11:05;;;;;;;6.00;4.65;;;9.40;67.70;;;;;;4978888;28;20035;-62
2023/03/19 08:13:31;;;;;;;5.22;4.10;;;9.40;67.70;;;;;;4978235;28;20031;-62
2023/03/19 08:15:56;;;;;;;5.05;3.88;;;9.40;67.80;;;;;;4977098;28;20535;-71
2023/03/19 08:18:22;;;;;;;5.65;4.00;;;9.50;67.80;;;;;;4977699;28;20462;-71
2023/03/19 08:20:48;;;;;;;4.47;3.80;;;9.60;67.50;;;;;;4978041;28;20038;-62
2023/03/19 08:23:15;;;;;;;5.25;3.90;;;9.60;67.30;;;;;;4978338;28;20030;-62
2023/03/19 08:25:40;;;;;;;4.85;4.15;;;9.70;67.40;;;;;;4978776;28;20125;-61
2023/03/19 08:28:08;;;;;;;4.13;3.67;;;9.70;67.20;;;;;;4978436;28;20031;-61
2023/03/19 08:30:35;;;;;;;4.07;3.40;;;9.70;67.10;;;;;;4977697;28;20105;-63
2023/03/19 08:33:00;;;;;;;4.72;3.85;;;9.80;67.20;;;;;;4978425;28;20035;-63
2023/03/19 08:35:26;;;;;;;5.00;3.80;;;9.80;67.00;;;;;;4979101;28;20041;-65
2023/03/19 08:37:53;;;;;;;4.35;3.45;;;9.90;66.60;;;;;;4979150;28;20029;-68
2023/03/19 08:40:19;;;;;;;3.65;3.35;;;10.00;66.30;;;;;;4979046;28;20027;-54
2023/03/19 08:42:44;;;;;;;4.82;3.55;;;10.00;65.80;;;;;;4979160;28;20085;-58
2023/03/19 08:45:11;;;;;;;4.43;3.58;;;9.90;65.80;;;;;;4978351;28;20042;-57
2023/03/19 08:47:37;;;;;;;3.90;3.45;;;9.90;65.90;;;;;;4983400;28;20466;-55
2023/03/19 08:50:04;;;;;;;3.90;3.50;;;9.90;65.90;;;;;;4978920;28;20113;-53
2023/03/19 08:52:30;;;;;;;4.60;3.65;;;9.90;66.10;;;;;;4977583;28;20027;-66
2023/03/19 08:54:55;;;;;;;4.22;3.83;;;9.90;66.00;;;;;;4978420;28;20544;-65
2023/03/19 08:57:21;;;;;;;4.53;3.70;;;9.90;65.90;;;;;;4979285;28;20050;-60
2023/03/19 08:59:47;;;;;;;4.60;3.80;;;9.90;65.90;;;;;;4978746;28;20057;-60
2023/03/19 09:02:12;;;;;;;4.15;3.70;;;10.00;65.90;;;;;;4978720;28;20062;-59
2023/03/19 09:04:42;;;;;;;4.32;3.30;;;10.10;65.80;;;;;;4975410;28;20102;-59
2023/03/19 09:07:11;;;;;;;5.13;3.70;;;10.10;65.50;;;;;;4975777;28;20039;-61
2023/03/19 09:09:38;;;;;;;4.03;3.63;;;10.20;65.40;;;;;;4975755;28;20038;-60
2023/03/19 09:12:06;;;;;;;4.65;3.92;;;10.20;65.20;;;;;;4975341;28;20034;-64
2023/03/19 09:14:32;;;;;;;4.82;3.92;;;10.30;65.30;;;;;;4962587;28;20521;-67
2023/03/19 09:16:57;;;;;;;4.13;3.67;;;10.30;65.20;;;;;;4976548;28;20045;-63
2023/03/19 09:19:23;;;;;;;5.47;3.85;;;10.30;65.20;;;;;;4975461;28;20039;-65
2023/03/19 09:21:49;;;;;;;5.00;4.10;;;10.30;65.20;;;;;;4975255;28;20042;-60
2023/03/19 09:24:15;;;;;;;4.32;3.60;;;10.30;65.10;;;;;;4974456;28;20065;-59
2023/03/19 09:26:41;;;;;;;4.78;3.85;;;10.30;64.80;;;;;;4975487;28;20075;-52
2023/03/19 09:29:07;;;;;;;3.95;3.42;;;10.40;64.60;;;;;;4974703;28;20035;-52
2023/03/19 09:31:32;;;;;;;4.07;3.25;;;10.50;64.50;;;;;;4975593;28;20109;-59
2023/03/19 09:33:58;;;;;;;4.18;3.55;;;10.50;64.20;;;;;;4974011;28;20114;-59
2023/03/19 09:36:25;;;;;;;4.22;3.63;;;10.60;64.30;;;;;;4975828;28;20027;-66
2023/03/19 09:38:51;;;;;;;4.75;3.60;;;10.50;64.40;;;;;;4975029;28;20034;-64
2023/03/19 09:41:34;;;;;;;5.75;3.95;;;10.60;64.40;;;;;;4966688;28;20031;-60
2023/03/19 09:44:12;;;;;;;4.22;3.45;;;10.60;64.20;;;;;;4973191;28;20035;-60
2023/03/19 09:46:46;;;;;;;4.55;4.13;;;10.80;64.10;;;;;;4982106;28;20042;-68
2023/03/19 09:49:31;;;;;;;4.22;3.70;;;10.80;63.70;;;;;;4963458;28;20110;-67
2023/03/19 09:52:18;;;;;;;4.35;3.70;;;10.90;63.30;;;;;;4975824;28;20477;-66
2023/03/19 09:54:51;;;;;;;5.03;4.20;;;10.90;63.10;;;;;;4976316;28;20113;-64
2023/03/19 09:57:17;;;;;;;3.78;3.40;;;10.90;62.70;;;;;;4967070;28;20034;-64
2023/03/19 09:59:44;;;;;;;3.50;3.20;;;10.90;62.70;;;;;;4975077;28;20065;-66
2023/03/19 10:02:36;;;;;;;4.10;3.70;;;10.80;62.60;;;;;;4974428;28;20082;-60
2023/03/19 10:05:16;;;;;;;5.05;3.90;;;10.70;62.90;;;;;;4970946;28;20066;-60
2023/03/19 10:08:32;;;;;;;5.25;4.22;;;10.70;62.70;;;;;;4974611;28;20031;-60
2023/03/19 10:11:07;;;;;;;4.05;3.65;;;10.60;62.70;;;;;;4945972;29;20051;-59
2023/03/19 10:13:51;;;;;;;4.53;3.67;;;10.50;63.00;;;;;;4949873;29;20486;-59
2023/03/19 10:16:27;;;;;;;5.30;3.78;;;10.50;62.80;;;;;;4965923;28;20055;-66
2023/03/19 10:19:01;;;;;;;4.88;3.65;;;10.50;62.80;;;;;;4974970;28;20038;-63
2023/03/19 10:21:57;;;;;;;4.38;3.92;;;10.50;62.80;;;;;;4974627;28;20521;-54
2023/03/19 10:24:35;;;;;;;5.05;3.90;;;10.50;62.60;;;;;;4972226;28;20039;-52
2023/03/19 10:27:19;;;;;;;4.00;3.50;;;10.40;62.50;;;;;;4974649;28;20451;-66
2023/03/19 10:29:45;;;;;;;4.57;3.92;;;10.40;62.50;;;;;;4964263;28;20050;-65
2023/03/19 10:32:27;;;;;;;5.75;4.45;;;10.30;62.50;;;;;;4973895;28;20426;-63
2023/03/19 10:34:53;;;;;;;4.93;4.13;;;10.20;62.70;;;;;;4970791;28;20030;-65
2023/03/19 10:37:28;;;;;;;4.93;4.20;;;10.10;62.80;;;;;;4974315;28;20027;-65
2023/03/19 10:39:57;;;;;;;4.32;3.92;;;10.10;62.80;;;;;;4973989;28;20035;-64
2023/03/19 10:42:43;;;;;;;5.65;4.07;;;10.00;62.70;;;;;;4974021;28;20590;-56
2023/03/19 10:45:10;;;;;;;4.97;3.90;;;9.90;63.00;;;;;;4968745;28;20035;-58
2023/03/19 10:47:40;;;;;;;4.88;4.30;;;9.90;63.30;;;;;;4979469;28;20543;-66
2023/03/19 10:50:13;;;;;;;5.57;4.40;;;9.80;63.20;;;;;;4973796;28;20038;-65
2023/03/19 10:52:41;;;;;;;5.70;4.65;;;9.80;63.20;;;;;;4971946;28;20045;-65
2023/03/19 10:55:15;;;;;;;4.30;3.88;;;9.90;63.10;;;;;;4973918;28;20043;-65
2023/03/19 10:57:42;;;;;;;4.93;4.15;;;9.90;62.90;;;;;;4973800;28;20101;-65
2023/03/19 11:00:23;;;;;;;5.15;4.03;;;9.80;63.00;;;;;;4973640;28;20430;-67
2023/03/19 11:02:54;;;;;;;5.68;4.20;;;9.90;63.20;;;;;;4973006;28;20027;-60
2023/03/19 11:05:28;;;;;;;4.97;4.47;;;9.80;63.30;;;;;;4973488;28;20422;-58
2023/03/19 11:08:06;;;;;;;5.63;4.57;;;9.80;63.10;;;;;;4972936;28;20031;-58
2023/03/19 11:10:35;;;;;;;5.47;4.30;;;9.80;63.10;;;;;;4973133;28;20165;-62
2023/03/19 11:13:12;;;;;;;5.80;4.97;;;9.80;62.80;;;;;;4973447;28;20059;-60
2023/03/19 11:15:38;;;;;;;4.75;4.18;;;9.80;62.90;;;;;;4977465;28;20778;-63
2023/03/19 11:18:18;;;;;;;7.43;4.95;;;9.70;63.00;;;;;;4974547;28;20034;-62
2023/03/19 11:20:52;;;;;;;4.85;4.30;;;9.70;63.30;;;;;;4973214;28;20098;-65
2023/03/19 11:23:19;;;;;;;5.07;4.28;;;9.60;63.40;;;;;;4964728;28;20089;-66
2023/03/19 11:25:52;;;;;;;4.90;4.28;;;9.70;63.50;;;;;;4972942;28;20121;-61
2023/03/19 11:28:23;;;;;;;6.78;5.20;;;9.60;63.60;;;;;;4972429;28;20717;-62
2023/03/19 11:31:00;;;;;;;6.67;5.33;;;9.60;63.70;;;;;;4973026;28;20027;-60
2023/03/19 11:33:45;;;;;;;6.30;4.75;;;9.70;63.70;;;;;;4972002;28;20026;-61
2023/03/19 11:36:22;;;;;;;6.70;4.70;;;9.70;63.80;;;;;;4972831;28;20031;-59
2023/03/19 11:39:16;;;;;;;6.15;4.72;;;9.60;63.50;;;;;;4972683;28;20023;-60
2023/03/19 11:42:01;;;;;;;6.32;5.05;;;9.60;63.50;;;;;;4973394;28;20387;-61
2023/03/19 11:44:30;;;;;;;5.35;4.60;;;9.50;63.50;;;;;;4973445;28;20039;-61
2023/03/19 11:47:09;;;;;;;5.13;4.63;;;9.40;63.50;;;;;;4979279;28;20125;-60
2023/03/19 11:49:44;;;;;;;6.10;4.70;;;9.30;63.60;;;;;;4973476;28;20030;-58
2023/03/19 11:52:09;;;;;;;4.53;4.10;;;9.20;63.80;;;;;;4968438;28;20027;-63
2023/03/19 11:54:43;;;;;;;5.95;4.68;;;9.20;64.00;;;;;;4972823;28;20123;-66
2023/03/19 11:57:22;;;;;;;4.90;4.35;;;9.20;64.10;;;;;;4972306;28;20031;-60
2023/03/19 12:00:07;;;;;;;6.30;4.57;;;9.20;64.40;;;;;;4972687;28;20031;-60
2023/03/19 12:02:51;;;;;;;5.20;4.38;;;9.20;64.40;;;;;;4973149;28;20030;-60
2023/03/19 12:05:23;;;;;;;5.32;4.60;;;9.20;64.50;;;;;;4972282;28;20034;-61
2023/03/19 12:08:11;;;;;;;4.82;4.32;;;9.20;64.40;;;;;;4967774;28;20027;-60
2023/03/19 12:11:04;;;;;;;5.32;4.78;;;9.30;64.30;;;;;;4972202;28;20038;-59
2023/03/19 12:13:40;;;;;;;5.22;4.35;;;9.30;64.40;;;;;;4961949;28;20034;-59
2023/03/19 12:16:32;;;;;;;5.28;4.78;;;9.20;64.30;;;;;;4978931;28;20480;-65
2023/03/19 12:19:18;;;;;;;4.55;4.00;;;9.30;64.30;;;;;;4970299;28;20043;-67
2023/03/19 12:22:17;;;;;;;4.90;4.35;;;9.30;64.30;;;;;;4962323;28;20042;-64
2023/03/19 12:25:15;;;;;;;5.35;4.35;;;9.30;64.30;;;;;;4971237;28;20126;-66
2023/03/19 12:27:57;;;;;;;4.65;4.15;;;9.30;64.30;;;;;;4970517;28;20060;-66
2023/03/19 12:30:45;;;;;;;4.55;3.70;;;9.30;64.40;;;;;;4976115;28;20041;-65
2023/03/19 12:33:23;;;;;;;4.82;4.30;;;9.30;64.40;;;;;;4967295;28;20027;-65
2023/03/19 12:35:54;;;;;;;5.43;4.40;;;9.40;64.40;;;;;;4974254;28;20037;-66
2023/03/19 12:38:26;;;;;;;5.00;4.30;;;9.40;64.30;;;;;;4973663;28;20055;-64
2023/03/19 12:41:13;;;;;;;5.07;4.55;;;9.40;64.40;;;;;;4976972;28;20469;-64
2023/03/19 12:44:20;;;;;;;4.95;4.45;;;9.50;64.30;;;;;;4960748;28;20458;-67
2023/03/19 12:47:03;;;;;;;5.05;4.40;;;9.50;64.20;;;;;;4975928;28;20370;-61
2023/03/19 12:49:36;;;;;;;6.15;4.45;;;9.50;64.20;;;;;;4971848;28;20027;-66
2023/03/19 12:52:42;;;;;;;4.90;4.40;;;9.50;64.30;;;;;;4976132;28;20031;-57
2023/03/19 12:55:19;;;;;;;5.95;4.78;;;9.40;64.10;;;;;;4922526;29;20024;-57
2023/03/19 12:58:01;;;;;;;5.93;4.45;;;9.40;64.20;;;;;;4918396;29;20036;-57
2023/03/19 13:00:35;;;;;;;5.13;4.20;;;9.40;64.20;;;;;;4958367;28;20046;-55
2023/03/19 13:03:24;;;;;;;6.53;4.65;;;9.40;64.30;;;;;;4988644;28;20049;-56
2023/03/19 13:06:19;;;;;;;5.80;4.72;;;9.50;64.40;;;;;;4975210;28;20126;-58
2023/03/19 13:08:57;;;;;;;6.32;4.57;;;9.50;64.30;;;;;;4970501;28;20065;-54